createdAt,value
2018-08-11T00:01:24.721Z,58.70
2018-08-11T00:03:52.671Z,58.90
2018-08-11T00:06:20.625Z,60.20
2018-08-11T00:08:48.432Z,58.90
2018-08-11T00:11:16.464Z,57.00
2018-08-11T00:13:44.361Z,57.80
2018-08-11T00:16:31.938Z,56.50
2018-08-11T00:18:59.934Z,57.30
2018-08-11T00:21:28.059Z,56.90
2018-08-11T00:23:56.235Z,57.10
2018-08-11T00:26:24.085Z,58.40
2018-08-11T00:28:51.950Z,59.30
2018-08-11T00:31:19.845Z,61.00
2018-08-11T00:33:47.648Z,62.00
2018-08-11T00:36:15.399Z,61.90
2018-08-11T00:38:43.245Z,63.20
2018-08-11T00:41:11.142Z,63.50
2018-08-11T00:43:38.968Z,64.00
2018-08-11T00:46:06.828Z,64.10
2018-08-11T00:48:34.811Z,64.20
2018-08-11T00:51:02.925Z,64.40
2018-08-11T00:53:30.931Z,64.60
2018-08-11T00:55:59.866Z,64.40
2018-08-11T00:58:27.898Z,64.30
2018-08-11T01:00:56.763Z,64.50
2018-08-11T01:03:24.618Z,64.40
2018-08-11T01:05:52.545Z,64.30
2018-08-11T01:08:20.531Z,64.10
2018-08-11T01:10:48.350Z,64.00
2018-08-11T01:13:16.220Z,64.40
2018-08-11T01:15:44.146Z,64.30
2018-08-11T01:18:12.096Z,64.70
2018-08-11T01:20:40.121Z,65.20
2018-08-11T01:23:08.093Z,65.60
2018-08-11T01:25:36.104Z,66.00
2018-08-11T01:28:03.981Z,66.20
2018-08-11T01:30:32.141Z,66.50
2018-08-11T01:33:00.143Z,66.30
2018-08-11T01:35:28.283Z,66.40
2018-08-11T01:37:56.803Z,66.90
2018-08-11T01:40:25.211Z,67.10
2018-08-11T01:42:53.013Z,67.90
2018-08-11T01:45:21.029Z,67.20
2018-08-11T01:47:48.937Z,67.10
2018-08-11T01:50:16.815Z,66.80
2018-08-11T01:52:45.757Z,67.20
2018-08-11T01:55:14.819Z,67.00
2018-08-11T01:57:42.928Z,67.00
2018-08-11T02:00:12.436Z,66.80
2018-08-11T02:02:40.538Z,66.90
2018-08-11T02:05:09.247Z,66.80
2018-08-11T02:07:37.667Z,66.60
2018-08-11T02:10:07.098Z,65.80
2018-08-11T02:12:35.005Z,66.40
2018-08-11T02:15:03.057Z,65.60
2018-08-11T02:17:31.141Z,65.50
2018-08-11T02:19:59.189Z,66.00
2018-08-11T02:22:27.259Z,65.10
2018-08-11T02:24:55.085Z,65.10
2018-08-11T02:27:22.917Z,65.20
2018-08-11T02:29:50.713Z,64.70
2018-08-11T02:32:18.702Z,64.50
2018-08-11T02:34:46.642Z,64.50
2018-08-11T02:37:14.500Z,64.60
2018-08-11T02:39:42.262Z,64.50
2018-08-11T02:42:10.095Z,64.80
2018-08-11T02:44:38.039Z,65.20
2018-08-11T02:47:06.062Z,65.10
2018-08-11T02:49:34.026Z,65.10
2018-08-11T02:52:01.988Z,65.40
2018-08-11T02:54:30.091Z,66.20
2018-08-11T02:56:58.085Z,66.30
2018-08-11T02:59:26.077Z,66.60
2018-08-11T03:01:54.748Z,67.10
2018-08-11T03:04:23.222Z,67.80
2018-08-11T03:06:51.452Z,67.40
2018-08-11T03:09:19.175Z,67.20
2018-08-11T03:11:47.111Z,67.50
2018-08-11T03:14:14.992Z,67.70
2018-08-11T03:16:42.725Z,67.30
2018-08-11T03:19:10.443Z,67.30
2018-08-11T03:21:38.181Z,67.00
2018-08-11T03:24:06.141Z,67.60
2018-08-11T03:26:34.144Z,67.80
2018-08-11T03:29:02.095Z,68.00
2018-08-11T03:31:29.997Z,68.10
2018-08-11T03:33:58.142Z,68.30
2018-08-11T03:36:26.048Z,68.60
2018-08-11T03:38:53.925Z,68.80
2018-08-11T03:41:21.681Z,68.90
2018-08-11T03:43:49.317Z,68.80
2018-08-11T03:46:17.077Z,69.30
2018-08-11T03:48:44.881Z,69.80
2018-08-11T03:51:12.777Z,68.50
2018-08-11T03:53:40.697Z,68.80
2018-08-11T03:56:08.670Z,69.30
2018-08-11T03:58:36.479Z,69.40
2018-08-11T04:01:04.606Z,69.60
2018-08-11T04:03:32.455Z,69.40
2018-08-11T04:06:00.409Z,69.90
2018-08-11T04:08:28.484Z,69.20
2018-08-11T04:10:56.645Z,69.60
2018-08-11T04:13:24.828Z,69.10
2018-08-11T04:15:52.677Z,70.10
2018-08-11T04:18:20.356Z,70.30
2018-08-11T04:20:48.286Z,70.50
2018-08-11T04:23:16.080Z,70.90
2018-08-11T04:25:43.861Z,71.40
2018-08-11T04:28:11.628Z,71.50
2018-08-11T04:30:39.475Z,72.40
2018-08-11T04:33:07.273Z,71.90
2018-08-11T04:35:35.113Z,71.90
2018-08-11T04:38:03.150Z,72.30
2018-08-11T04:40:31.217Z,72.40
2018-08-11T04:42:59.133Z,72.60
2018-08-11T04:45:27.136Z,72.70
2018-08-11T04:47:55.048Z,72.80
2018-08-11T04:50:22.854Z,73.00
2018-08-11T04:52:50.657Z,73.00
2018-08-11T04:55:18.610Z,73.20
2018-08-11T04:57:46.417Z,73.30
2018-08-11T05:00:14.294Z,73.20
2018-08-11T05:02:42.166Z,73.30
2018-08-11T05:05:09.929Z,73.40
2018-08-11T05:07:38.129Z,73.50
2018-08-11T05:10:06.494Z,73.40
2018-08-11T05:12:34.473Z,73.30
2018-08-11T05:15:02.556Z,73.00
2018-08-11T05:17:30.576Z,72.20
2018-08-11T05:19:58.624Z,71.60
2018-08-11T05:22:26.747Z,70.80
2018-08-11T05:24:54.662Z,69.80
2018-08-11T05:27:22.385Z,69.20
2018-08-11T05:29:50.237Z,68.20
2018-08-11T05:32:18.020Z,67.90
2018-08-11T05:34:45.868Z,68.10
2018-08-11T05:37:13.737Z,68.10
2018-08-11T05:39:41.574Z,66.00
2018-08-11T05:42:09.392Z,65.80
2018-08-11T05:44:37.154Z,65.40
2018-08-11T05:47:05.376Z,64.80
2018-08-11T05:49:33.339Z,64.60
2018-08-11T05:52:01.219Z,64.60
2018-08-11T05:54:29.186Z,64.50
2018-08-11T05:56:57.207Z,64.10
2018-08-11T05:59:25.360Z,63.40
2018-08-11T06:01:53.191Z,63.50
2018-08-11T06:04:21.145Z,63.40
2018-08-11T06:06:49.155Z,63.30
2018-08-11T06:09:17.118Z,64.00
2018-08-11T06:11:44.838Z,63.20
2018-08-11T06:14:12.709Z,63.50
2018-08-11T06:16:40.498Z,63.40
2018-08-11T06:19:08.356Z,63.50
2018-08-11T06:21:36.181Z,63.50
2018-08-11T06:24:04.100Z,63.60
2018-08-11T06:26:32.130Z,63.10
2018-08-11T06:29:00.097Z,63.20
2018-08-11T06:31:28.267Z,61.70
2018-08-11T06:33:56.202Z,61.10
2018-08-11T06:36:24.115Z,60.20
2018-08-11T06:38:52.149Z,60.10
2018-08-11T06:41:20.049Z,59.90
2018-08-11T06:43:48.178Z,59.70
2018-08-11T06:46:16.036Z,59.60
2018-08-11T06:48:43.943Z,59.90
2018-08-11T06:51:11.809Z,60.00
2018-08-11T06:53:39.883Z,58.10
2018-08-11T06:56:08.093Z,58.40
2018-08-11T06:58:35.893Z,57.40
2018-08-11T07:01:04.106Z,57.00
2018-08-11T07:03:32.090Z,56.30
2018-08-11T07:06:00.098Z,56.40
2018-08-11T07:08:28.247Z,55.30
2018-08-11T07:10:56.194Z,55.80
2018-08-11T07:13:24.045Z,54.80
2018-08-11T07:15:51.818Z,55.00
2018-08-11T07:18:19.764Z,54.00
2018-08-11T07:20:48.080Z,54.00
2018-08-11T07:23:16.060Z,54.70
2018-08-11T07:25:44.026Z,54.00
2018-08-11T07:28:12.065Z,52.30
2018-08-11T07:30:39.874Z,52.10
2018-08-11T07:33:07.783Z,51.50
2018-08-11T07:35:35.614Z,51.80
2018-08-11T07:38:03.768Z,51.20
2018-08-11T07:40:31.842Z,49.90
2018-08-11T07:43:00.287Z,49.00
2018-08-11T07:45:28.318Z,48.50
2018-08-11T07:47:56.347Z,46.80
2018-08-11T07:50:24.288Z,44.70
2018-08-11T07:52:52.009Z,44.40
2018-08-11T07:55:19.922Z,45.80
2018-08-11T07:57:47.896Z,43.80
2018-08-11T08:00:15.830Z,42.40
2018-08-11T08:02:43.618Z,42.60
2018-08-11T08:05:11.560Z,40.50
2018-08-11T08:07:39.345Z,39.60
2018-08-11T08:10:07.621Z,40.10
2018-08-11T08:12:35.514Z,40.40
2018-08-11T08:15:04.015Z,40.00
2018-08-11T08:17:32.025Z,39.30
2018-08-11T08:19:59.948Z,38.60
2018-08-11T08:22:28.532Z,37.80
2018-08-11T08:24:56.961Z,37.30
2018-08-11T08:27:24.998Z,36.50
2018-08-11T08:29:52.942Z,36.80
2018-08-11T08:32:20.821Z,36.10
2018-08-11T08:34:49.013Z,36.00
2018-08-11T08:37:16.827Z,35.90
2018-08-11T08:39:44.653Z,36.10
2018-08-11T08:42:12.528Z,36.80
2018-08-11T08:44:40.360Z,36.30
2018-08-11T08:47:08.220Z,36.50
2018-08-11T08:49:36.143Z,36.20
2018-08-11T08:52:03.976Z,36.70
2018-08-11T08:54:31.878Z,37.00
2018-08-11T08:56:59.843Z,36.30
2018-08-11T08:59:28.036Z,36.10
2018-08-11T09:01:56.207Z,34.90
2018-08-11T09:04:24.092Z,34.70
2018-08-11T09:06:51.958Z,35.20
2018-08-11T09:09:19.814Z,35.50
2018-08-11T09:11:47.806Z,34.60
2018-08-11T09:14:15.743Z,36.40
2018-08-11T09:16:47.788Z,36.80
2018-08-11T09:19:15.746Z,37.60
2018-08-11T09:21:43.489Z,36.90
2018-08-11T09:24:11.369Z,37.30
2018-08-11T09:26:39.333Z,35.90
2018-08-11T09:29:24.797Z,35.90
2018-08-11T09:31:52.601Z,35.40
2018-08-11T09:34:24.360Z,36.50
2018-08-11T09:36:52.550Z,35.60
2018-08-11T09:39:27.035Z,36.00
2018-08-11T09:41:54.949Z,34.80
2018-08-11T09:44:34.291Z,36.20
2018-08-11T09:47:02.771Z,31.60
2018-08-11T09:49:30.884Z,32.30
2018-08-11T09:51:59.041Z,32.40
2018-08-11T09:54:27.147Z,32.90
2018-08-11T09:56:55.458Z,32.20
2018-08-11T09:59:23.498Z,31.20
2018-08-11T10:01:57.031Z,30.90
2018-08-11T10:04:26.287Z,29.90
2018-08-11T10:06:55.471Z,30.60
2018-08-11T10:09:23.389Z,30.70
2018-08-11T10:11:51.219Z,30.80
2018-08-11T10:14:19.093Z,30.70
2018-08-11T10:16:46.888Z,31.20
2018-08-11T10:19:14.732Z,31.00
2018-08-11T10:21:42.710Z,30.20
2018-08-11T10:24:10.680Z,30.50
2018-08-11T10:26:38.557Z,30.50
2018-08-11T10:29:06.456Z,30.20
2018-08-11T10:31:34.465Z,29.90
2018-08-11T10:34:02.914Z,30.00
2018-08-11T10:36:30.842Z,31.80
2018-08-11T10:38:58.835Z,31.50
2018-08-11T10:41:27.180Z,32.10
2018-08-11T10:43:55.824Z,31.90
2018-08-11T10:46:23.722Z,32.20
2018-08-11T10:48:51.564Z,32.30
2018-08-11T10:51:19.536Z,31.20
2018-08-11T10:53:47.255Z,31.70
2018-08-11T10:56:15.448Z,32.20
2018-08-11T10:58:43.263Z,31.70
2018-08-11T11:01:11.164Z,31.80
2018-08-11T11:03:38.967Z,31.20
2018-08-11T11:06:06.912Z,31.90
2018-08-11T11:08:34.813Z,32.40
2018-08-11T11:11:02.790Z,33.00
2018-08-11T11:13:30.743Z,32.80
2018-08-11T11:16:06.998Z,35.20
2018-08-11T11:18:35.271Z,33.60
2018-08-11T11:21:03.573Z,33.60
2018-08-11T11:23:31.723Z,34.60
2018-08-11T11:25:59.810Z,34.20
2018-08-11T11:28:28.101Z,33.80
2018-08-11T11:30:56.118Z,33.20
2018-08-11T11:33:23.921Z,33.70
2018-08-11T11:35:52.056Z,34.00
2018-08-11T11:38:19.924Z,34.40
2018-08-11T11:40:47.849Z,33.30
2018-08-11T11:43:15.921Z,34.30
2018-08-11T11:45:43.899Z,33.80
2018-08-11T11:48:11.741Z,33.70
2018-08-11T11:50:39.505Z,34.20
2018-08-11T11:53:07.363Z,33.80
2018-08-11T11:55:35.390Z,32.70
2018-08-11T11:58:03.421Z,32.60
2018-08-11T12:00:31.509Z,33.90
2018-08-11T12:02:59.585Z,33.60
2018-08-11T12:05:27.726Z,33.60
2018-08-11T12:07:55.819Z,33.60
2018-08-11T12:10:23.825Z,33.40
2018-08-11T12:12:51.733Z,34.00
2018-08-11T12:15:19.573Z,33.10
2018-08-11T12:17:47.478Z,34.20
2018-08-11T12:20:15.380Z,33.70
2018-08-11T12:22:43.349Z,33.80
2018-08-11T12:25:11.165Z,33.50
2018-08-11T12:27:38.908Z,33.70
2018-08-11T12:30:07.889Z,33.40
2018-08-11T12:32:35.781Z,33.50
2018-08-11T12:35:03.900Z,34.30
2018-08-11T12:37:31.978Z,33.00
2018-08-11T12:39:59.878Z,33.10
2018-08-11T12:42:27.890Z,33.60
2018-08-11T12:44:55.576Z,33.00
2018-08-11T12:47:23.087Z,33.50
2018-08-11T12:49:50.635Z,33.60
2018-08-11T12:52:18.097Z,31.10
2018-08-11T12:54:45.574Z,30.90
2018-08-11T12:57:13.049Z,30.40
2018-08-11T12:59:40.518Z,30.70
2018-08-11T13:02:08.208Z,30.90
2018-08-11T13:04:35.883Z,31.40
2018-08-11T13:07:04.373Z,31.50
2018-08-11T13:09:36.450Z,31.20
2018-08-11T13:12:04.504Z,31.40
2018-08-11T13:14:32.982Z,31.20
2018-08-11T13:17:01.580Z,30.30
2018-08-11T13:19:30.359Z,31.30
2018-08-11T13:21:58.554Z,30.30
2018-08-11T13:24:26.572Z,30.30
2018-08-11T13:26:54.670Z,30.70
2018-08-11T13:29:22.814Z,30.30
2018-08-11T13:31:50.813Z,29.30
2018-08-11T13:34:18.798Z,29.80
2018-08-11T13:36:46.800Z,28.60
2018-08-11T13:39:14.777Z,28.20
2018-08-11T13:41:48.107Z,28.80
2018-08-11T13:44:17.194Z,28.90
2018-08-11T13:46:45.228Z,29.40
2018-08-11T13:49:13.261Z,28.90
2018-08-11T13:51:41.318Z,29.20
2018-08-11T13:54:09.338Z,28.30
2018-08-11T13:56:37.977Z,28.70
2018-08-11T13:59:06.294Z,28.80
2018-08-11T14:01:34.652Z,28.20
2018-08-11T14:04:03.116Z,28.70
2018-08-11T14:06:31.373Z,28.30
2018-08-11T14:08:59.607Z,28.30
2018-08-11T14:11:28.212Z,27.60
2018-08-11T14:13:56.975Z,27.60
2018-08-11T14:16:25.170Z,27.90
2018-08-11T14:18:53.102Z,28.50
2018-08-11T14:21:21.007Z,27.10
2018-08-11T14:23:48.964Z,27.70
2018-08-11T14:26:16.928Z,27.30
2018-08-11T14:28:44.872Z,27.20
2018-08-11T14:31:12.751Z,26.50
2018-08-11T14:33:40.781Z,26.60
2018-08-11T14:36:08.800Z,26.10
2018-08-11T14:38:36.791Z,26.10
2018-08-11T14:41:05.022Z,26.50
2018-08-11T14:43:33.215Z,27.00
2018-08-11T14:46:01.349Z,26.40
2018-08-11T14:48:29.689Z,26.20
2018-08-11T14:50:58.191Z,26.20
2018-08-11T14:53:26.718Z,26.30
2018-08-11T14:55:55.294Z,26.30
2018-08-11T14:58:23.461Z,26.80
2018-08-11T15:00:51.454Z,26.70
2018-08-11T15:03:19.330Z,26.70
2018-08-11T15:05:47.186Z,26.60
2018-08-11T15:08:15.098Z,26.40
2018-08-11T15:10:42.972Z,26.00
2018-08-11T15:13:10.947Z,25.90
2018-08-11T15:15:38.901Z,26.20
2018-08-11T15:18:06.906Z,26.20
2018-08-11T15:20:34.863Z,26.20
2018-08-11T15:23:02.883Z,25.70
2018-08-11T15:25:31.099Z,26.00
2018-08-11T15:27:59.187Z,26.00
2018-08-11T15:30:27.742Z,25.90
2018-08-11T15:32:55.865Z,26.50
2018-08-11T15:35:23.918Z,26.30
2018-08-11T15:37:51.877Z,26.70
2018-08-11T15:40:20.052Z,26.30
2018-08-11T15:42:48.462Z,26.60
2018-08-11T15:48:02.312Z,27.40
2018-08-11T15:50:30.002Z,27.90
2018-08-11T15:52:58.664Z,27.80
2018-08-11T15:55:26.830Z,28.00
2018-08-11T16:11:31.882Z,27.40
2018-08-11T16:13:59.618Z,27.00
2018-08-11T16:16:28.140Z,26.50
2018-08-11T16:18:56.525Z,26.70
2018-08-11T16:21:24.321Z,26.60
2018-08-11T16:23:51.933Z,27.40
2018-08-11T16:26:19.850Z,27.10
2018-08-11T16:28:47.539Z,27.00
2018-08-11T16:31:15.192Z,26.70
2018-08-11T16:33:42.832Z,26.80
2018-08-11T16:36:10.401Z,27.40
2018-08-11T16:38:38.153Z,27.20
2018-08-11T16:41:06.256Z,26.90
2018-08-11T16:43:38.281Z,27.00
2018-08-11T16:46:06.086Z,27.50
2018-08-11T16:48:33.690Z,27.50
2018-08-11T16:51:02.230Z,27.00
2018-08-11T16:53:30.882Z,27.30
2018-08-11T16:55:59.366Z,27.30
2018-08-11T16:58:28.656Z,27.50
2018-08-11T17:00:57.521Z,27.70
2018-08-11T17:03:29.610Z,28.20
2018-08-11T17:05:59.349Z,28.30
2018-08-11T17:08:28.820Z,28.00
2018-08-11T17:10:58.634Z,28.00
2018-08-11T17:13:27.540Z,28.70
2018-08-11T17:15:58.556Z,28.20
2018-08-11T17:18:27.340Z,28.50
2018-08-11T17:20:56.462Z,29.80
2018-08-11T17:23:27.392Z,29.10
2018-08-11T17:25:56.051Z,29.00
2018-08-11T17:28:24.255Z,28.90
2018-08-11T17:30:52.289Z,29.50
2018-08-11T17:33:20.397Z,29.50
2018-08-11T17:35:48.217Z,29.30
2018-08-11T17:38:16.227Z,29.30
2018-08-11T17:40:44.256Z,29.50
2018-08-11T17:43:12.191Z,29.70
2018-08-11T17:45:41.188Z,29.90
2018-08-11T17:48:12.907Z,30.00
2018-08-11T17:50:40.886Z,30.30
2018-08-11T17:53:28.943Z,29.80
2018-08-11T17:55:59.404Z,30.20
2018-08-11T17:58:30.308Z,30.30
2018-08-11T18:01:00.194Z,29.80
2018-08-11T18:03:29.676Z,30.50
2018-08-11T18:05:59.347Z,30.60
2018-08-11T18:08:29.974Z,30.30
2018-08-11T18:10:59.581Z,30.40
2018-08-11T18:13:29.711Z,30.40
2018-08-11T18:15:58.502Z,30.40
2018-08-11T18:18:26.584Z,30.70
2018-08-11T18:20:54.629Z,30.80
2018-08-11T18:23:22.533Z,31.10
2018-08-11T18:25:50.368Z,30.80
2018-08-11T18:28:18.325Z,30.70
2018-08-11T18:30:46.250Z,31.40
2018-08-11T18:33:14.834Z,30.80
2018-08-11T18:35:42.781Z,31.50
2018-08-11T18:38:10.876Z,32.00
2018-08-11T18:40:51.221Z,30.90
2018-08-11T18:43:19.284Z,31.40
2018-08-11T18:45:47.340Z,31.60
2018-08-11T18:48:15.318Z,31.80
2018-08-11T18:50:43.268Z,31.80
2018-08-11T18:53:11.285Z,32.30
2018-08-11T18:55:39.343Z,32.80
2018-08-11T18:58:07.367Z,32.90
2018-08-11T19:00:35.474Z,33.10
2018-08-11T19:03:03.546Z,33.40
2018-08-11T19:05:31.824Z,33.40
2018-08-11T19:08:00.532Z,34.10
2018-08-11T19:10:29.659Z,34.30
2018-08-11T19:12:58.773Z,34.60
2018-08-11T19:15:28.483Z,34.50
2018-08-11T19:17:57.062Z,35.00
2018-08-11T19:20:25.946Z,35.10
2018-08-11T19:22:53.813Z,35.40
2018-08-11T19:25:21.959Z,35.60
2018-08-11T19:27:49.925Z,35.90
2018-08-11T19:30:17.887Z,36.10
2018-08-11T19:32:46.383Z,36.30
2018-08-11T19:35:14.431Z,36.70
2018-08-11T19:37:42.714Z,37.20
2018-08-11T19:40:10.722Z,37.80
2018-08-11T19:42:38.710Z,37.90
2018-08-11T19:45:08.883Z,38.20
2018-08-11T19:47:37.298Z,38.30
2018-08-11T19:50:06.445Z,38.70
2018-08-11T19:52:34.469Z,39.00
2018-08-11T19:55:02.814Z,38.90
2018-08-11T19:57:30.967Z,39.00
2018-08-11T19:59:59.695Z,38.70
2018-08-11T20:02:28.832Z,39.50
2018-08-11T20:04:57.890Z,39.10
2018-08-11T20:07:26.395Z,39.10
2018-08-11T20:09:54.528Z,39.00
2018-08-11T20:12:22.547Z,39.50
2018-08-11T20:14:50.761Z,40.10
2018-08-11T20:17:18.724Z,40.20
2018-08-11T20:19:46.586Z,40.50
2018-08-11T20:22:17.057Z,40.80
2018-08-11T20:24:45.410Z,40.90
2018-08-11T20:27:13.872Z,40.90
2018-08-11T20:29:42.079Z,41.70
2018-08-11T20:32:11.953Z,41.70
2018-08-11T20:34:40.872Z,41.00
2018-08-11T20:37:09.619Z,41.20
2018-08-11T20:39:37.647Z,41.30
2018-08-11T20:42:06.255Z,41.80
2018-08-11T20:44:34.282Z,42.10
2018-08-11T20:47:02.843Z,42.70
2018-08-11T20:49:31.184Z,43.00
2018-08-11T20:52:00.397Z,43.60
2018-08-11T20:54:29.838Z,43.50
2018-08-11T20:56:59.036Z,44.20
2018-08-11T20:59:28.084Z,44.50
2018-08-11T21:01:57.236Z,44.30
2018-08-11T21:04:29.248Z,44.50
2018-08-11T21:06:58.310Z,44.50
2018-08-11T21:09:28.183Z,44.50
2018-08-11T21:11:56.865Z,44.90
2018-08-11T21:14:25.210Z,44.70
2018-08-11T21:16:53.579Z,45.00
2018-08-11T21:19:21.608Z,45.20
2018-08-11T21:21:49.573Z,45.30
2018-08-11T21:24:17.610Z,45.50
2018-08-11T21:26:45.745Z,46.30
2018-08-11T21:29:13.878Z,45.70
2018-08-11T21:31:42.857Z,45.90
2018-08-11T21:34:10.825Z,46.20
2018-08-11T21:36:38.768Z,46.50
2018-08-11T21:39:10.165Z,46.30
2018-08-11T21:41:38.210Z,46.60
2018-08-11T21:44:06.455Z,46.80
2018-08-11T21:46:34.562Z,47.00
2018-08-11T21:49:02.834Z,47.50
2018-08-11T21:51:31.179Z,47.60
2018-08-11T21:53:59.606Z,48.00
2018-08-11T21:56:28.857Z,48.20
2018-08-11T21:58:57.062Z,48.50
2018-08-11T22:01:29.903Z,48.90
2018-08-11T22:03:58.035Z,49.20
2018-08-11T22:06:26.440Z,49.20
2018-08-11T22:08:54.308Z,49.10
2018-08-11T22:11:22.138Z,49.10
2018-08-11T22:13:49.995Z,49.30
2018-08-11T22:16:18.058Z,49.30
2018-08-11T22:18:46.167Z,49.20
2018-08-11T22:21:14.144Z,49.30
2018-08-11T22:23:42.096Z,49.70
2018-08-11T22:26:10.011Z,49.80
2018-08-11T22:28:37.905Z,49.80
2018-08-11T22:31:06.225Z,50.10
2018-08-11T22:33:34.198Z,50.30
2018-08-11T22:36:02.303Z,50.70
2018-08-11T22:38:30.487Z,50.80
2018-08-11T22:40:58.624Z,51.00
2018-08-11T22:43:26.851Z,51.30
2018-08-11T22:45:54.787Z,51.80
2018-08-11T22:48:22.669Z,52.20
2018-08-11T22:50:50.591Z,52.40
2018-08-11T22:53:18.567Z,52.80
2018-08-11T22:55:46.414Z,53.20
2018-08-11T22:58:14.371Z,53.20
2018-08-11T23:00:42.306Z,53.30
2018-08-11T23:03:10.212Z,53.50
2018-08-11T23:05:38.143Z,53.50
2018-08-11T23:08:06.331Z,53.50
2018-08-11T23:10:35.407Z,53.40
2018-08-11T23:13:03.609Z,53.50
2018-08-11T23:15:31.750Z,53.40
2018-08-11T23:18:00.105Z,53.30
2018-08-11T23:20:28.335Z,52.90
2018-08-11T23:22:56.479Z,52.80
2018-08-11T23:25:24.388Z,52.90
2018-08-11T23:27:52.306Z,52.90
2018-08-11T23:30:20.207Z,52.90
2018-08-11T23:32:48.237Z,52.90
2018-08-11T23:35:16.293Z,53.10
2018-08-11T23:37:44.181Z,53.40
2018-08-11T23:40:16.760Z,53.50
2018-08-11T23:42:44.637Z,53.70
2018-08-11T23:45:25.366Z,54.10
2018-08-11T23:47:53.345Z,54.30
2018-08-11T23:50:21.216Z,54.40
2018-08-11T23:52:49.181Z,54.40
2018-08-11T23:55:17.275Z,53.90
2018-08-11T23:57:45.109Z,53.90
